sensor_id;sensor_type;location;lat;lon;timestamp;P1;durP1;ratioP1;P2;durP2;ratioP2
70239;SDS011;57629;52.256;10.414;2022-11-15T00:00:17;6.23;;;5.57;;
70239;SDS011;57629;52.256;10.414;2022-11-15T00:01:18;6.07;;;5.47;;
70239;SDS011;57629;52.256;10.414;2022-11-15T00:02:18;6.70;;;5.60;;
70239;SDS011;57629;52.256;10.414;2022-11-15T00:03:20;5.72;;;4.95;;
70239;SDS011;57629;52.256;10.414;2022-11-15T00:04:21;8.32;;;5.70;;
70239;SDS011;57629;52.256;10.414;2022-11-15T00:05:23;6.23;;;5.43;;
70239;SDS011;57629;52.256;10.414;2022-11-15T00:06:24;6.00;;;5.05;;
70239;SDS011;57629;52.256;10.414;2022-11-15T00:07:25;6.85;;;5.60;;
70239;SDS011;57629;52.256;10.414;2022-11-15T00:08:28;6.10;;;5.00;;
70239;SDS011;57629;52.256;10.414;2022-11-15T00:09:29;6.28;;;5.50;;
70239;SDS011;57629;52.256;10.414;2022-11-15T00:10:29;5.57;;;4.97;;
70239;SDS011;57629;52.256;10.414;2022-11-15T00:11:30;6.60;;;5.63;;
70239;SDS011;57629;52.256;10.414;2022-11-15T00:12:31;6.68;;;5.40;;
70239;SDS011;57629;52.256;10.414;2022-11-15T00:13:31;6.60;;;5.53;;
70239;SDS011;57629;52.256;10.414;2022-11-15T00:14:32;7.28;;;5.35;;
70239;SDS011;57629;52.256;10.414;2022-11-15T00:15:34;6.50;;;5.47;;
70239;SDS011;57629;52.256;10.414;2022-11-15T00:16:35;6.97;;;5.47;;
70239;SDS011;57629;52.256;10.414;2022-11-15T00:17:36;6.03;;;4.93;;
70239;SDS011;57629;52.256;10.414;2022-11-15T00:18:37;6.75;;;5.10;;
70239;SDS011;57629;52.256;10.414;2022-11-15T00:19:38;7.15;;;5.47;;
70239;SDS011;57629;52.256;10.414;2022-11-15T00:20:40;5.83;;;5.20;;
70239;SDS011;57629;52.256;10.414;2022-11-15T00:21:40;6.57;;;5.28;;
70239;SDS011;57629;52.256;10.414;2022-11-15T00:22:41;7.00;;;5.40;;
70239;SDS011;57629;52.256;10.414;2022-11-15T00:23:42;6.03;;;5.30;;
70239;SDS011;57629;52.256;10.414;2022-11-15T00:24:42;6.32;;;5.47;;
70239;SDS011;57629;52.256;10.414;2022-11-15T00:25:43;6.63;;;5.70;;
70239;SDS011;57629;52.256;10.414;2022-11-15T00:26:44;6.28;;;5.63;;
70239;SDS011;57629;52.256;10.414;2022-11-15T00:27:44;6.13;;;5.00;;
70239;SDS011;57629;52.256;10.414;2022-11-15T00:28:45;6.25;;;5.05;;
70239;SDS011;57629;52.256;10.414;2022-11-15T00:29:46;5.97;;;5.22;;
70239;SDS011;57629;52.256;10.414;2022-11-15T00:30:46;6.33;;;5.50;;
70239;SDS011;57629;52.256;10.414;2022-11-15T00:31:47;5.70;;;5.00;;
70239;SDS011;57629;52.256;10.414;2022-11-15T00:32:47;5.80;;;5.20;;
70239;SDS011;57629;52.256;10.414;2022-11-15T00:33:48;7.95;;;5.60;;
70239;SDS011;57629;52.256;10.414;2022-11-15T00:34:49;5.80;;;5.20;;
70239;SDS011;57629;52.256;10.414;2022-11-15T00:35:51;6.05;;;5.25;;
70239;SDS011;57629;52.256;10.414;2022-11-15T00:36:51;6.30;;;5.30;;
70239;SDS011;57629;52.256;10.414;2022-11-15T00:37:52;6.03;;;4.67;;
70239;SDS011;57629;52.256;10.414;2022-11-15T00:38:53;6.43;;;5.45;;
70239;SDS011;57629;52.256;10.414;2022-11-15T00:39:53;5.63;;;4.97;;
70239;SDS011;57629;52.256;10.414;2022-11-15T00:40:54;6.20;;;5.50;;
70239;SDS011;57629;52.256;10.414;2022-11-15T00:41:55;6.60;;;5.27;;
70239;SDS011;57629;52.256;10.414;2022-11-15T00:42:55;6.30;;;5.60;;
70239;SDS011;57629;52.256;10.414;2022-11-15T00:43:56;7.35;;;5.68;;
70239;SDS011;57629;52.256;10.414;2022-11-15T00:44:57;6.50;;;5.10;;
70239;SDS011;57629;52.256;10.414;2022-11-15T00:45:57;6.05;;;5.28;;
70239;SDS011;57629;52.256;10.414;2022-11-15T00:46:58;5.67;;;5.03;;
70239;SDS011;57629;52.256;10.414;2022-11-15T00:47:59;5.70;;;4.75;;
70239;SDS011;57629;52.256;10.414;2022-11-15T00:49:02;5.87;;;5.10;;
70239;SDS011;57629;52.256;10.414;2022-11-15T00:50:03;5.85;;;4.75;;
70239;SDS011;57629;52.256;10.414;2022-11-15T00:51:06;6.05;;;4.80;;
70239;SDS011;57629;52.256;10.414;2022-11-15T00:52:06;6.00;;;5.03;;
70239;SDS011;57629;52.256;10.414;2022-11-15T00:53:07;6.15;;;5.10;;
70239;SDS011;57629;52.256;10.414;2022-11-15T00:54:08;5.43;;;4.70;;
70239;SDS011;57629;52.256;10.414;2022-11-15T00:55:08;5.75;;;5.15;;
70239;SDS011;57629;52.256;10.414;2022-11-15T00:56:13;6.13;;;5.13;;
70239;SDS011;57629;52.256;10.414;2022-11-15T00:57:13;6.03;;;5.20;;
70239;SDS011;57629;52.256;10.414;2022-11-15T00:58:14;5.95;;;5.20;;
70239;SDS011;57629;52.256;10.414;2022-11-15T00:59:15;5.93;;;5.27;;
70239;SDS011;57629;52.256;10.414;2022-11-15T01:00:15;5.68;;;4.88;;
70239;SDS011;57629;52.256;10.414;2022-11-15T01:01:16;6.10;;;5.43;;
70239;SDS011;57629;52.256;10.414;2022-11-15T01:02:17;5.95;;;5.00;;
70239;SDS011;57629;52.256;10.414;2022-11-15T01:03:18;6.20;;;5.10;;
70239;SDS011;57629;52.256;10.414;2022-11-15T01:04:18;7.60;;;5.13;;
70239;SDS011;57629;52.256;10.414;2022-11-15T01:05:19;6.15;;;5.55;;
70239;SDS011;57629;52.256;10.414;2022-11-15T01:06:21;5.50;;;4.88;;
70239;SDS011;57629;52.256;10.414;2022-11-15T01:07:22;6.23;;;5.50;;
70239;SDS011;57629;52.256;10.414;2022-11-15T01:08:23;6.63;;;5.00;;
70239;SDS011;57629;52.256;10.414;2022-11-15T01:09:23;6.53;;;5.33;;
70239;SDS011;57629;52.256;10.414;2022-11-15T01:10:24;5.82;;;5.13;;
70239;SDS011;57629;52.256;10.414;2022-11-15T01:11:25;6.85;;;5.28;;
70239;SDS011;57629;52.256;10.414;2022-11-15T01:12:25;5.73;;;5.00;;
70239;SDS011;57629;52.256;10.414;2022-11-15T01:13:26;6.60;;;5.40;;
70239;SDS011;57629;52.256;10.414;2022-11-15T01:14:30;5.88;;;5.05;;
70239;SDS011;57629;52.256;10.414;2022-11-15T01:15:30;6.23;;;5.43;;
70239;SDS011;57629;52.256;10.414;2022-11-15T01:16:31;6.18;;;5.57;;
70239;SDS011;57629;52.256;10.414;2022-11-15T01:17:31;5.97;;;5.33;;
70239;SDS011;57629;52.256;10.414;2022-11-15T01:18:32;5.63;;;4.97;;
70239;SDS011;57629;52.256;10.414;2022-11-15T01:19:33;5.60;;;5.00;;
70239;SDS011;57629;52.256;10.414;2022-11-15T01:20:33;6.23;;;4.97;;
70239;SDS011;57629;52.256;10.414;2022-11-15T01:21:36;6.22;;;5.63;;
70239;SDS011;57629;52.256;10.414;2022-11-15T01:22:36;6.30;;;5.22;;
70239;SDS011;57629;52.256;10.414;2022-11-15T01:23:37;6.17;;;5.13;;
70239;SDS011;57629;52.256;10.414;2022-11-15T01:24:38;5.68;;;4.55;;
70239;SDS011;57629;52.256;10.414;2022-11-15T01:25:38;5.75;;;4.80;;
70239;SDS011;57629;52.256;10.414;2022-11-15T01:26:39;5.17;;;4.53;;
70239;SDS011;57629;52.256;10.414;2022-11-15T01:27:40;6.07;;;4.75;;
70239;SDS011;57629;52.256;10.414;2022-11-15T01:28:40;5.80;;;5.20;;
70239;SDS011;57629;52.256;10.414;2022-11-15T01:29:42;5.55;;;4.90;;
70239;SDS011;57629;52.256;10.414;2022-11-15T01:30:43;5.95;;;5.20;;
70239;SDS011;57629;52.256;10.414;2022-11-15T01:31:43;5.67;;;5.00;;
70239;SDS011;57629;52.256;10.414;2022-11-15T01:32:44;5.65;;;4.85;;
70239;SDS011;57629;52.256;10.414;2022-11-15T01:33:45;6.03;;;5.13;;
70239;SDS011;57629;52.256;10.414;2022-11-15T01:34:46;6.10;;;5.30;;
70239;SDS011;57629;52.256;10.414;2022-11-15T01:35:46;6.07;;;5.30;;
70239;SDS011;57629;52.256;10.414;2022-11-15T01:36:48;6.87;;;5.07;;
70239;SDS011;57629;52.256;10.414;2022-11-15T01:37:49;5.35;;;4.72;;
70239;SDS011;57629;52.256;10.414;2022-11-15T01:38:52;6.43;;;5.13;;
70239;SDS011;57629;52.256;10.414;2022-11-15T01:39:53;6.10;;;5.30;;
70239;SDS011;57629;52.256;10.414;2022-11-15T01:40:54;6.15;;;5.00;;
70239;SDS011;57629;52.256;10.414;2022-11-15T01:41:55;5.72;;;4.72;;
70239;SDS011;57629;52.256;10.414;2022-11-15T01:42:55;5.90;;;5.30;;
70239;SDS011;57629;52.256;10.414;2022-11-15T01:43:57;5.85;;;4.90;;
70239;SDS011;57629;52.256;10.414;2022-11-15T01:45:19;6.00;;;4.90;;
70239;SDS011;57629;52.256;10.414;2022-11-15T01:46:22;5.63;;;4.68;;
70239;SDS011;57629;52.256;10.414;2022-11-15T01:47:28;5.85;;;4.60;;
70239;SDS011;57629;52.256;10.414;2022-11-15T01:48:32;6.28;;;5.43;;
70239;SDS011;57629;52.256;10.414;2022-11-15T01:49:34;5.60;;;4.65;;
70239;SDS011;57629;52.256;10.414;2022-11-15T01:50:38;5.72;;;4.60;;
70239;SDS011;57629;52.256;10.414;2022-11-15T01:51:38;6.63;;;4.78;;
70239;SDS011;57629;52.256;10.414;2022-11-15T01:52:39;6.05;;;4.90;;
70239;SDS011;57629;52.256;10.414;2022-11-15T01:53:42;5.88;;;4.75;;
70239;SDS011;57629;52.256;10.414;2022-11-15T01:54:45;6.13;;;4.70;;
70239;SDS011;57629;52.256;10.414;2022-11-15T01:55:47;6.50;;;4.90;;
70239;SDS011;57629;52.256;10.414;2022-11-15T01:56:49;5.30;;;4.80;;
70239;SDS011;57629;52.256;10.414;2022-11-15T01:57:54;5.55;;;4.88;;
70239;SDS011;57629;52.256;10.414;2022-11-15T01:58:58;6.25;;;4.60;;
70239;SDS011;57629;52.256;10.414;2022-11-15T02:00:03;5.30;;;4.22;;
70239;SDS011;57629;52.256;10.414;2022-11-15T02:01:07;5.20;;;4.53;;
70239;SDS011;57629;52.256;10.414;2022-11-15T02:02:07;5.75;;;4.97;;
70239;SDS011;57629;52.256;10.414;2022-11-15T02:03:08;5.47;;;4.60;;
70239;SDS011;57629;52.256;10.414;2022-11-15T02:04:10;5.22;;;4.60;;
70239;SDS011;57629;52.256;10.414;2022-11-15T02:05:15;5.60;;;4.53;;
70239;SDS011;57629;52.256;10.414;2022-11-15T02:06:16;6.13;;;4.87;;
70239;SDS011;57629;52.256;10.414;2022-11-15T02:07:17;5.80;;;4.40;;
70239;SDS011;57629;52.256;10.414;2022-11-15T02:08:20;5.25;;;4.60;;
70239;SDS011;57629;52.256;10.414;2022-11-15T02:09:20;6.10;;;4.90;;
70239;SDS011;57629;52.256;10.414;2022-11-15T02:10:22;5.43;;;4.40;;
70239;SDS011;57629;52.256;10.414;2022-11-15T02:11:24;5.35;;;4.65;;
70239;SDS011;57629;52.256;10.414;2022-11-15T02:12:24;5.75;;;4.65;;
70239;SDS011;57629;52.256;10.414;2022-11-15T02:13:25;5.33;;;4.60;;
70239;SDS011;57629;52.256;10.414;2022-11-15T02:14:26;5.55;;;4.35;;
70239;SDS011;57629;52.256;10.414;2022-11-15T02:15:30;5.97;;;4.60;;
70239;SDS011;57629;52.256;10.414;2022-11-15T02:16:43;7.18;;;4.45;;
70239;SDS011;57629;52.256;10.414;2022-11-15T02:17:58;5.47;;;4.57;;
70239;SDS011;57629;52.256;10.414;2022-11-15T02:19:13;5.47;;;4.60;;
70239;SDS011;57629;52.256;10.414;2022-11-15T02:20:39;5.67;;;4.50;;
70239;SDS011;57629;52.256;10.414;2022-11-15T02:21:44;5.32;;;4.78;;
70239;SDS011;57629;52.256;10.414;2022-11-15T02:22:57;5.43;;;4.18;;
70239;SDS011;57629;52.256;10.414;2022-11-15T02:24:28;5.43;;;4.22;;
70239;SDS011;57629;52.256;10.414;2022-11-15T02:25:46;5.40;;;4.60;;
70239;SDS011;57629;52.256;10.414;2022-11-15T02:28:48;5.60;;;4.60;;
70239;SDS011;57629;52.256;10.414;2022-11-15T02:30:01;5.53;;;4.13;;
70239;SDS011;57629;52.256;10.414;2022-11-15T02:31:13;5.35;;;4.50;;
70239;SDS011;57629;52.256;10.414;2022-11-15T02:32:27;6.63;;;4.60;;
70239;SDS011;57629;52.256;10.414;2022-11-15T02:33:35;5.83;;;4.50;;
70239;SDS011;57629;52.256;10.414;2022-11-15T02:34:43;5.72;;;4.68;;
70239;SDS011;57629;52.256;10.414;2022-11-15T02:35:57;5.22;;;3.97;;
70239;SDS011;57629;52.256;10.414;2022-11-15T02:37:01;4.80;;;3.95;;
70239;SDS011;57629;52.256;10.414;2022-11-15T02:38:08;5.88;;;4.32;;
70239;SDS011;57629;52.256;10.414;2022-11-15T02:39:15;5.05;;;4.28;;
70239;SDS011;57629;52.256;10.414;2022-11-15T02:40:26;5.78;;;4.65;;
70239;SDS011;57629;52.256;10.414;2022-11-15T02:41:32;5.57;;;4.57;;
70239;SDS011;57629;52.256;10.414;2022-11-15T02:42:40;6.28;;;4.65;;
70239;SDS011;57629;52.256;10.414;2022-11-15T02:43:45;5.68;;;4.00;;
70239;SDS011;57629;52.256;10.414;2022-11-15T02:44:48;4.97;;;4.23;;
70239;SDS011;57629;52.256;10.414;2022-11-15T02:45:53;5.70;;;4.47;;
70239;SDS011;57629;52.256;10.414;2022-11-15T02:47:01;5.53;;;4.28;;
70239;SDS011;57629;52.256;10.414;2022-11-15T02:48:05;5.90;;;4.68;;
70239;SDS011;57629;52.256;10.414;2022-11-15T02:49:07;5.00;;;4.20;;
70239;SDS011;57629;52.256;10.414;2022-11-15T02:50:08;4.95;;;4.15;;
70239;SDS011;57629;52.256;10.414;2022-11-15T02:51:11;5.20;;;4.00;;
70239;SDS011;57629;52.256;10.414;2022-11-15T02:52:14;5.00;;;4.35;;
70239;SDS011;57629;52.256;10.414;2022-11-15T02:53:15;5.93;;;4.22;;
70239;SDS011;57629;52.256;10.414;2022-11-15T02:54:17;5.20;;;4.50;;
70239;SDS011;57629;52.256;10.414;2022-11-15T02:55:25;6.07;;;4.28;;
70239;SDS011;57629;52.256;10.414;2022-11-15T02:56:27;4.65;;;4.00;;
70239;SDS011;57629;52.256;10.414;2022-11-15T02:57:31;4.85;;;4.32;;
70239;SDS011;57629;52.256;10.414;2022-11-15T03:00:14;5.03;;;4.00;;
70239;SDS011;57629;52.256;10.414;2022-11-15T03:01:19;5.85;;;4.25;;
70239;SDS011;57629;52.256;10.414;2022-11-15T03:02:37;5.30;;;4.22;;
70239;SDS011;57629;52.256;10.414;2022-11-15T03:03:46;6.60;;;4.55;;
70239;SDS011;57629;52.256;10.414;2022-11-15T03:04:57;4.85;;;4.10;;
70239;SDS011;57629;52.256;10.414;2022-11-15T03:06:06;5.03;;;4.30;;
70239;SDS011;57629;52.256;10.414;2022-11-15T03:07:16;4.88;;;4.38;;
70239;SDS011;57629;52.256;10.414;2022-11-15T03:08:26;5.15;;;4.22;;
70239;SDS011;57629;52.256;10.414;2022-11-15T03:09:34;5.32;;;4.13;;
70239;SDS011;57629;52.256;10.414;2022-11-15T03:10:41;6.43;;;4.50;;
70239;SDS011;57629;52.256;10.414;2022-11-15T03:11:47;5.23;;;4.70;;
70239;SDS011;57629;52.256;10.414;2022-11-15T03:12:57;6.00;;;4.75;;
70239;SDS011;57629;52.256;10.414;2022-11-15T03:14:02;5.40;;;4.50;;
70239;SDS011;57629;52.256;10.414;2022-11-15T03:15:16;5.68;;;4.65;;
70239;SDS011;57629;52.256;10.414;2022-11-15T03:16:24;5.07;;;4.40;;
70239;SDS011;57629;52.256;10.414;2022-11-15T03:17:29;6.05;;;4.10;;
70239;SDS011;57629;52.256;10.414;2022-11-15T03:18:35;5.10;;;4.20;;
70239;SDS011;57629;52.256;10.414;2022-11-15T03:19:40;4.70;;;4.07;;
70239;SDS011;57629;52.256;10.414;2022-11-15T03:20:44;6.18;;;4.32;;
70239;SDS011;57629;52.256;10.414;2022-11-15T03:21:46;5.20;;;3.78;;
70239;SDS011;57629;52.256;10.414;2022-11-15T03:22:49;4.93;;;4.03;;
70239;SDS011;57629;52.256;10.414;2022-11-15T03:23:50;5.50;;;4.00;;
70239;SDS011;57629;52.256;10.414;2022-11-15T03:24:54;5.10;;;4.00;;
70239;SDS011;57629;52.256;10.414;2022-11-15T03:25:59;5.60;;;4.30;;
70239;SDS011;57629;52.256;10.414;2022-11-15T03:27:00;4.88;;;4.15;;
70239;SDS011;57629;52.256;10.414;2022-11-15T03:28:03;5.93;;;4.22;;
70239;SDS011;57629;52.256;10.414;2022-11-15T03:29:08;5.00;;;4.30;;
70239;SDS011;57629;52.256;10.414;2022-11-15T03:30:13;4.97;;;3.90;;
70239;SDS011;57629;52.256;10.414;2022-11-15T03:31:14;4.93;;;4.07;;
70239;SDS011;57629;52.256;10.414;2022-11-15T03:32:20;5.43;;;4.07;;
70239;SDS011;57629;52.256;10.414;2022-11-15T03:33:25;5.03;;;3.83;;
70239;SDS011;57629;52.256;10.414;2022-11-15T03:34:29;5.88;;;4.15;;
70239;SDS011;57629;52.256;10.414;2022-11-15T03:35:35;5.40;;;4.40;;
70239;SDS011;57629;52.256;10.414;2022-11-15T03:36:38;5.72;;;4.38;;
70239;SDS011;57629;52.256;10.414;2022-11-15T03:37:40;5.28;;;4.03;;
70239;SDS011;57629;52.256;10.414;2022-11-15T03:38:44;4.70;;;3.85;;
70239;SDS011;57629;52.256;10.414;2022-11-15T03:39:46;5.50;;;4.07;;
70239;SDS011;57629;52.256;10.414;2022-11-15T03:40:47;5.00;;;3.97;;
70239;SDS011;57629;52.256;10.414;2022-11-15T03:41:56;4.72;;;3.85;;
70239;SDS011;57629;52.256;10.414;2022-11-15T03:43:09;4.90;;;4.03;;
70239;SDS011;57629;52.256;10.414;2022-11-15T03:44:16;4.97;;;3.85;;
70239;SDS011;57629;52.256;10.414;2022-11-15T03:45:26;5.30;;;4.05;;
70239;SDS011;57629;52.256;10.414;2022-11-15T03:46:32;5.30;;;4.13;;
70239;SDS011;57629;52.256;10.414;2022-11-15T03:47:36;5.22;;;3.80;;
70239;SDS011;57629;52.256;10.414;2022-11-15T03:48:43;4.87;;;3.67;;
70239;SDS011;57629;52.256;10.414;2022-11-15T03:49:50;4.55;;;3.58;;
70239;SDS011;57629;52.256;10.414;2022-11-15T03:50:53;4.95;;;3.83;;
70239;SDS011;57629;52.256;10.414;2022-11-15T03:51:56;7.32;;;4.63;;
70239;SDS011;57629;52.256;10.414;2022-11-15T03:52:57;4.85;;;3.58;;
70239;SDS011;57629;52.256;10.414;2022-11-15T03:53:58;5.57;;;3.80;;
70239;SDS011;57629;52.256;10.414;2022-11-15T03:54:59;4.90;;;3.83;;
70239;SDS011;57629;52.256;10.414;2022-11-15T03:56:02;5.83;;;4.07;;
70239;SDS011;57629;52.256;10.414;2022-11-15T03:57:03;4.90;;;4.10;;
70239;SDS011;57629;52.256;10.414;2022-11-15T03:58:04;4.60;;;3.65;;
70239;SDS011;57629;52.256;10.414;2022-11-15T03:59:05;4.63;;;3.70;;
70239;SDS011;57629;52.256;10.414;2022-11-15T04:00:06;5.30;;;4.30;;
70239;SDS011;57629;52.256;10.414;2022-11-15T04:01:07;4.82;;;4.00;;
70239;SDS011;57629;52.256;10.414;2022-11-15T04:02:08;4.40;;;3.70;;
70239;SDS011;57629;52.256;10.414;2022-11-15T04:03:10;5.30;;;4.10;;
70239;SDS011;57629;52.256;10.414;2022-11-15T04:04:10;4.68;;;3.50;;
70239;SDS011;57629;52.256;10.414;2022-11-15T04:05:11;5.87;;;4.37;;
70239;SDS011;57629;52.256;10.414;2022-11-15T04:06:12;4.40;;;3.80;;
70239;SDS011;57629;52.256;10.414;2022-11-15T04:07:13;5.43;;;4.30;;
70239;SDS011;57629;52.256;10.414;2022-11-15T04:08:13;6.05;;;4.30;;
70239;SDS011;57629;52.256;10.414;2022-11-15T04:09:14;4.55;;;4.00;;
70239;SDS011;57629;52.256;10.414;2022-11-15T04:10:15;6.23;;;4.80;;
70239;SDS011;57629;52.256;10.414;2022-11-15T04:11:16;4.97;;;4.00;;
70239;SDS011;57629;52.256;10.414;2022-11-15T04:12:16;5.13;;;4.43;;
70239;SDS011;57629;52.256;10.414;2022-11-15T04:13:17;5.35;;;4.07;;
70239;SDS011;57629;52.256;10.414;2022-11-15T04:14:17;4.87;;;3.83;;
70239;SDS011;57629;52.256;10.414;2022-11-15T04:15:18;6.82;;;4.15;;
70239;SDS011;57629;52.256;10.414;2022-11-15T04:16:20;5.45;;;4.07;;
70239;SDS011;57629;52.256;10.414;2022-11-15T04:17:21;5.77;;;4.03;;
70239;SDS011;57629;52.256;10.414;2022-11-15T04:18:23;5.47;;;4.00;;
70239;SDS011;57629;52.256;10.414;2022-11-15T04:19:23;5.00;;;3.70;;
70239;SDS011;57629;52.256;10.414;2022-11-15T04:20:24;5.33;;;3.73;;
70239;SDS011;57629;52.256;10.414;2022-11-15T04:21:26;4.82;;;3.78;;
70239;SDS011;57629;52.256;10.414;2022-11-15T04:22:27;5.45;;;4.10;;
70239;SDS011;57629;52.256;10.414;2022-11-15T04:23:27;4.53;;;3.73;;
70239;SDS011;57629;52.256;10.414;2022-11-15T04:24:28;5.28;;;4.30;;
70239;SDS011;57629;52.256;10.414;2022-11-15T04:25:29;5.20;;;3.43;;
70239;SDS011;57629;52.256;10.414;2022-11-15T04:26:29;4.70;;;3.60;;
70239;SDS011;57629;52.256;10.414;2022-11-15T04:27:30;4.67;;;3.77;;
70239;SDS011;57629;52.256;10.414;2022-11-15T04:28:31;5.35;;;4.07;;
70239;SDS011;57629;52.256;10.414;2022-11-15T04:29:31;5.00;;;3.72;;
70239;SDS011;57629;52.256;10.414;2022-11-15T04:30:32;4.10;;;3.30;;
70239;SDS011;57629;52.256;10.414;2022-11-15T04:31:32;5.05;;;3.90;;
70239;SDS011;57629;52.256;10.414;2022-11-15T04:32:33;4.80;;;3.70;;
70239;SDS011;57629;52.256;10.414;2022-11-15T04:33:35;5.03;;;3.95;;
70239;SDS011;57629;52.256;10.414;2022-11-15T04:34:36;5.60;;;3.83;;
70239;SDS011;57629;52.256;10.414;2022-11-15T04:35:36;5.43;;;4.10;;
70239;SDS011;57629;52.256;10.414;2022-11-15T04:36:37;4.20;;;3.45;;
70239;SDS011;57629;52.256;10.414;2022-11-15T04:37:38;4.60;;;3.80;;
70239;SDS011;57629;52.256;10.414;2022-11-15T04:38:38;6.45;;;3.83;;
70239;SDS011;57629;52.256;10.414;2022-11-15T04:39:39;4.20;;;3.70;;
70239;SDS011;57629;52.256;10.414;2022-11-15T04:40:40;6.40;;;4.38;;
70239;SDS011;57629;52.256;10.414;2022-11-15T04:41:41;5.22;;;4.00;;
70239;SDS011;57629;52.256;10.414;2022-11-15T04:42:41;5.73;;;3.60;;
70239;SDS011;57629;52.256;10.414;2022-11-15T04:43:42;5.43;;;3.80;;
70239;SDS011;57629;52.256;10.414;2022-11-15T04:44:43;5.00;;;3.88;;
70239;SDS011;57629;52.256;10.414;2022-11-15T04:45:43;4.80;;;3.80;;
70239;SDS011;57629;52.256;10.414;2022-11-15T04:46:44;5.22;;;3.88;;
70239;SDS011;57629;52.256;10.414;2022-11-15T04:47:45;5.13;;;3.60;;
70239;SDS011;57629;52.256;10.414;2022-11-15T04:48:47;4.55;;;3.72;;
70239;SDS011;57629;52.256;10.414;2022-11-15T04:49:47;4.20;;;3.80;;
70239;SDS011;57629;52.256;10.414;2022-11-15T04:50:48;4.57;;;3.70;;
70239;SDS011;57629;52.256;10.414;2022-11-15T04:51:49;4.85;;;3.92;;
70239;SDS011;57629;52.256;10.414;2022-11-15T04:52:50;4.70;;;3.35;;
70239;SDS011;57629;52.256;10.414;2022-11-15T04:53:52;4.27;;;3.43;;
70239;SDS011;57629;52.256;10.414;2022-11-15T04:54:52;4.97;;;3.75;;
70239;SDS011;57629;52.256;10.414;2022-11-15T04:55:53;6.17;;;3.90;;
70239;SDS011;57629;52.256;10.414;2022-11-15T04:56:54;4.15;;;3.13;;
70239;SDS011;57629;52.256;10.414;2022-11-15T04:57:58;4.83;;;3.60;;
70239;SDS011;57629;52.256;10.414;2022-11-15T04:58:58;4.50;;;3.53;;
70239;SDS011;57629;52.256;10.414;2022-11-15T04:59:59;4.57;;;3.83;;
70239;SDS011;57629;52.256;10.414;2022-11-15T05:01:05;4.60;;;3.73;;
70239;SDS011;57629;52.256;10.414;2022-11-15T05:02:07;4.57;;;3.88;;
70239;SDS011;57629;52.256;10.414;2022-11-15T05:03:08;5.15;;;3.72;;
70239;SDS011;57629;52.256;10.414;2022-11-15T05:04:10;5.10;;;3.83;;
70239;SDS011;57629;52.256;10.414;2022-11-15T05:05:11;5.20;;;3.60;;
70239;SDS011;57629;52.256;10.414;2022-11-15T05:06:12;5.13;;;3.77;;
70239;SDS011;57629;52.256;10.414;2022-11-15T05:07:13;6.72;;;3.80;;
70239;SDS011;57629;52.256;10.414;2022-11-15T05:08:13;5.17;;;3.87;;
70239;SDS011;57629;52.256;10.414;2022-11-15T05:09:14;4.03;;;3.30;;
70239;SDS011;57629;52.256;10.414;2022-11-15T05:10:14;5.20;;;3.53;;
70239;SDS011;57629;52.256;10.414;2022-11-15T05:11:15;5.00;;;3.70;;
70239;SDS011;57629;52.256;10.414;2022-11-15T05:12:16;4.43;;;3.60;;
70239;SDS011;57629;52.256;10.414;2022-11-15T05:13:16;4.57;;;3.53;;
70239;SDS011;57629;52.256;10.414;2022-11-15T05:14:17;4.57;;;3.70;;
70239;SDS011;57629;52.256;10.414;2022-11-15T05:15:18;5.15;;;3.80;;
70239;SDS011;57629;52.256;10.414;2022-11-15T05:16:18;5.07;;;3.83;;
70239;SDS011;57629;52.256;10.414;2022-11-15T05:17:19;4.57;;;3.85;;
70239;SDS011;57629;52.256;10.414;2022-11-15T05:18:20;4.33;;;3.50;;
70239;SDS011;57629;52.256;10.414;2022-11-15T05:19:22;5.00;;;4.03;;
70239;SDS011;57629;52.256;10.414;2022-11-15T05:20:23;5.55;;;3.55;;
70239;SDS011;57629;52.256;10.414;2022-11-15T05:21:24;5.28;;;3.47;;
70239;SDS011;57629;52.256;10.414;2022-11-15T05:22:24;5.00;;;3.73;;
70239;SDS011;57629;52.256;10.414;2022-11-15T05:23:25;4.10;;;3.53;;
70239;SDS011;57629;52.256;10.414;2022-11-15T05:24:25;4.20;;;3.30;;
70239;SDS011;57629;52.256;10.414;2022-11-15T05:25:26;4.30;;;3.60;;
70239;SDS011;57629;52.256;10.414;2022-11-15T05:26:27;5.00;;;3.97;;
70239;SDS011;57629;52.256;10.414;2022-11-15T05:27:28;4.57;;;3.55;;
70239;SDS011;57629;52.256;10.414;2022-11-15T05:28:29;3.92;;;3.05;;
70239;SDS011;57629;52.256;10.414;2022-11-15T05:29:30;4.10;;;3.38;;
70239;SDS011;57629;52.256;10.414;2022-11-15T05:30:31;4.83;;;3.63;;
70239;SDS011;57629;52.256;10.414;2022-11-15T05:31:31;5.32;;;3.78;;
70239;SDS011;57629;52.256;10.414;2022-11-15T05:32:32;3.80;;;3.03;;
70239;SDS011;57629;52.256;10.414;2022-11-15T05:33:33;4.75;;;3.78;;
70239;SDS011;57629;52.256;10.414;2022-11-15T05:34:36;4.53;;;3.50;;
70239;SDS011;57629;52.256;10.414;2022-11-15T05:35:38;5.20;;;3.50;;
70239;SDS011;57629;52.256;10.414;2022-11-15T05:36:42;5.50;;;3.42;;
70239;SDS011;57629;52.256;10.414;2022-11-15T05:37:43;4.78;;;4.05;;
70239;SDS011;57629;52.256;10.414;2022-11-15T05:38:44;4.78;;;3.50;;
70239;SDS011;57629;52.256;10.414;2022-11-15T05:39:46;4.40;;;3.30;;
70239;SDS011;57629;52.256;10.414;2022-11-15T05:40:47;4.43;;;3.63;;
70239;SDS011;57629;52.256;10.414;2022-11-15T05:41:48;4.88;;;3.45;;
70239;SDS011;57629;52.256;10.414;2022-11-15T05:42:52;5.20;;;3.80;;
70239;SDS011;57629;52.256;10.414;2022-11-15T05:43:53;3.85;;;3.25;;
70239;SDS011;57629;52.256;10.414;2022-11-15T05:44:54;4.00;;;3.47;;
70239;SDS011;57629;52.256;10.414;2022-11-15T05:45:55;4.88;;;3.40;;
70239;SDS011;57629;52.256;10.414;2022-11-15T05:46:57;4.40;;;3.35;;
70239;SDS011;57629;52.256;10.414;2022-11-15T05:47:58;4.70;;;3.50;;
70239;SDS011;57629;52.256;10.414;2022-11-15T05:49:00;4.30;;;3.22;;
70239;SDS011;57629;52.256;10.414;2022-11-15T05:50:03;4.90;;;3.78;;
70239;SDS011;57629;52.256;10.414;2022-11-15T05:51:04;5.38;;;3.65;;
70239;SDS011;57629;52.256;10.414;2022-11-15T05:52:07;4.50;;;3.40;;
70239;SDS011;57629;52.256;10.414;2022-11-15T05:53:14;4.45;;;3.15;;
70239;SDS011;57629;52.256;10.414;2022-11-15T05:54:19;5.53;;;3.65;;
70239;SDS011;57629;52.256;10.414;2022-11-15T05:55:22;4.45;;;3.25;;
70239;SDS011;57629;52.256;10.414;2022-11-15T05:56:23;4.03;;;3.20;;
70239;SDS011;57629;52.256;10.414;2022-11-15T05:57:24;4.53;;;3.67;;
70239;SDS011;57629;52.256;10.414;2022-11-15T05:58:25;5.40;;;3.50;;
70239;SDS011;57629;52.256;10.414;2022-11-15T05:59:26;4.47;;;3.60;;
70239;SDS011;57629;52.256;10.414;2022-11-15T06:00:29;4.73;;;3.50;;
70239;SDS011;57629;52.256;10.414;2022-11-15T06:01:30;4.50;;;3.58;;
70239;SDS011;57629;52.256;10.414;2022-11-15T06:02:30;4.57;;;3.65;;
70239;SDS011;57629;52.256;10.414;2022-11-15T06:03:31;4.10;;;3.20;;
70239;SDS011;57629;52.256;10.414;2022-11-15T06:04:32;5.00;;;3.72;;
70239;SDS011;57629;52.256;10.414;2022-11-15T06:05:34;5.03;;;3.50;;
70239;SDS011;57629;52.256;10.414;2022-11-15T06:06:34;4.65;;;3.70;;
70239;SDS011;57629;52.256;10.414;2022-11-15T06:07:35;6.00;;;3.75;;
70239;SDS011;57629;52.256;10.414;2022-11-15T06:08:35;4.97;;;3.53;;
70239;SDS011;57629;52.256;10.414;2022-11-15T06:09:36;4.50;;;3.30;;
70239;SDS011;57629;52.256;10.414;2022-11-15T06:10:37;4.57;;;3.30;;
70239;SDS011;57629;52.256;10.414;2022-11-15T06:11:37;4.07;;;3.45;;
70239;SDS011;57629;52.256;10.414;2022-11-15T06:12:38;4.77;;;3.50;;
70239;SDS011;57629;52.256;10.414;2022-11-15T06:13:38;5.20;;;3.50;;
70239;SDS011;57629;52.256;10.414;2022-11-15T06:14:39;4.10;;;3.43;;